sensor_id;sensor_type;location;lat;lon;timestamp;pressure;altitude;pressure_sealevel;temperature;humidity
17054;BME280;8643;48.824;11.422;2022-09-09T00:00:47;96707.16;;;11.38;100.00
17054;BME280;8643;48.824;11.422;2022-09-09T00:03:23;96718.22;;;11.29;100.00
17054;BME280;8643;48.824;11.422;2022-09-09T00:06:03;96722.69;;;11.22;100.00
17054;BME280;8643;48.824;11.422;2022-09-09T00:08:44;96721.19;;;11.12;100.00
17054;BME280;8643;48.824;11.422;2022-09-09T00:11:24;96718.09;;;11.13;100.00
17054;BME280;8643;48.824;11.422;2022-09-09T00:14:00;96720.63;;;11.18;100.00
17054;BME280;8643;48.824;11.422;2022-09-09T00:16:38;96715.59;;;11.21;100.00
17054;BME280;8643;48.824;11.422;2022-09-09T00:19:20;96709.66;;;11.18;100.00
17054;BME280;8643;48.824;11.422;2022-09-09T00:22:06;96713.75;;;11.12;100.00
17054;BME280;8643;48.824;11.422;2022-09-09T00:24:43;96706.66;;;11.11;100.00
17054;BME280;8643;48.824;11.422;2022-09-09T00:27:23;96703.47;;;11.09;100.00
17054;BME280;8643;48.824;11.422;2022-09-09T00:30:12;96694.09;;;10.98;100.00
17054;BME280;8643;48.824;11.422;2022-09-09T00:32:41;96698.22;;;11.04;100.00
17054;BME280;8643;48.824;11.422;2022-09-09T00:35:18;96695.47;;;11.04;100.00
17054;BME280;8643;48.824;11.422;2022-09-09T00:37:55;96695.81;;;11.03;100.00
17054;BME280;8643;48.824;11.422;2022-09-09T00:40:34;96698.00;;;11.09;100.00
17054;BME280;8643;48.824;11.422;2022-09-09T00:43:26;96691.28;;;11.07;100.00
17054;BME280;8643;48.824;11.422;2022-09-09T00:46:38;96690.47;;;11.18;100.00
17054;BME280;8643;48.824;11.422;2022-09-09T00:49:21;96700.53;;;11.27;100.00
17054;BME280;8643;48.824;11.422;2022-09-09T00:52:08;96700.41;;;11.35;100.00
17054;BME280;8643;48.824;11.422;2022-09-09T00:54:53;96695.16;;;11.30;100.00
17054;BME280;8643;48.824;11.422;2022-09-09T00:57:28;96688.06;;;11.29;100.00
17054;BME280;8643;48.824;11.422;2022-09-09T01:00:20;96701.22;;;11.36;100.00
17054;BME280;8643;48.824;11.422;2022-09-09T01:03:19;96706.00;;;11.51;100.00
17054;BME280;8643;48.824;11.422;2022-09-09T01:06:01;96709.88;;;11.50;100.00
17054;BME280;8643;48.824;11.422;2022-09-09T01:09:04;96705.09;;;11.47;100.00
17054;BME280;8643;48.824;11.422;2022-09-09T01:11:50;96705.78;;;11.44;100.00
17054;BME280;8643;48.824;11.422;2022-09-09T01:14:37;96710.25;;;11.36;100.00
17054;BME280;8643;48.824;11.422;2022-09-09T01:17:15;96708.06;;;11.42;100.00
17054;BME280;8643;48.824;11.422;2022-09-09T01:20:07;96711.47;;;11.39;100.00
17054;BME280;8643;48.824;11.422;2022-09-09T01:23:07;96707.03;;;11.47;100.00
17054;BME280;8643;48.824;11.422;2022-09-09T01:26:18;96702.81;;;11.49;100.00
17054;BME280;8643;48.824;11.422;2022-09-09T01:28:50;96707.38;;;11.45;100.00
17054;BME280;8643;48.824;11.422;2022-09-09T01:31:30;96701.31;;;11.52;100.00
17054;BME280;8643;48.824;11.422;2022-09-09T01:34:00;96695.97;;;11.55;100.00
17054;BME280;8643;48.824;11.422;2022-09-09T01:36:39;96701.22;;;11.61;100.00
17054;BME280;8643;48.824;11.422;2022-09-09T01:39:12;96698.13;;;11.62;100.00
17054;BME280;8643;48.824;11.422;2022-09-09T01:41:43;96702.94;;;11.65;100.00
17054;BME280;8643;48.824;11.422;2022-09-09T01:44:14;96694.81;;;11.69;100.00
17054;BME280;8643;48.824;11.422;2022-09-09T01:46:45;96685.19;;;11.63;100.00
17054;BME280;8643;48.824;11.422;2022-09-09T01:49:18;96688.19;;;11.58;100.00
17054;BME280;8643;48.824;11.422;2022-09-09T01:51:49;96695.47;;;11.53;100.00
17054;BME280;8643;48.824;11.422;2022-09-09T01:54:28;96686.81;;;11.39;100.00
17054;BME280;8643;48.824;11.422;2022-09-09T01:57:13;96690.00;;;11.29;100.00
17054;BME280;8643;48.824;11.422;2022-09-09T02:00:00;96681.31;;;11.14;100.00
17054;BME280;8643;48.824;11.422;2022-09-09T02:02:51;96682.72;;;11.08;100.00
17054;BME280;8643;48.824;11.422;2022-09-09T02:05:36;96679.25;;;11.11;100.00
17054;BME280;8643;48.824;11.422;2022-09-09T02:08:18;96681.91;;;10.95;100.00
17054;BME280;8643;48.824;11.422;2022-09-09T02:11:01;96682.22;;;10.94;100.00
17054;BME280;8643;48.824;11.422;2022-09-09T02:13:45;96678.09;;;10.88;100.00
17054;BME280;8643;48.824;11.422;2022-09-09T02:16:22;96682.22;;;10.94;100.00
17054;BME280;8643;48.824;11.422;2022-09-09T02:19:01;96690.69;;;11.01;100.00
17054;BME280;8643;48.824;11.422;2022-09-09T02:21:45;96686.22;;;10.96;100.00
17054;BME280;8643;48.824;11.422;2022-09-09T02:24:16;96690.91;;;10.96;100.00
17054;BME280;8643;48.824;11.422;2022-09-09T02:26:55;96687.38;;;10.95;100.00
17054;BME280;8643;48.824;11.422;2022-09-09T02:29:31;96685.19;;;10.89;100.00
17054;BME280;8643;48.824;11.422;2022-09-09T02:32:06;96678.00;;;10.84;100.00
17054;BME280;8643;48.824;11.422;2022-09-09T02:34:43;96678.34;;;10.82;100.00
17054;BME280;8643;48.824;11.422;2022-09-09T02:37:13;96681.63;;;10.76;100.00
17054;BME280;8643;48.824;11.422;2022-09-09T02:39:46;96668.38;;;10.78;100.00
17054;BME280;8643;48.824;11.422;2022-09-09T02:42:19;96669.09;;;10.87;100.00
17054;BME280;8643;48.824;11.422;2022-09-09T02:44:51;96669.44;;;10.86;100.00
17054;BME280;8643;48.824;11.422;2022-09-09T02:47:29;96668.28;;;10.74;100.00
17054;BME280;8643;48.824;11.422;2022-09-09T02:50:13;96659.84;;;10.79;100.00
17054;BME280;8643;48.824;11.422;2022-09-09T02:52:52;96668.06;;;10.79;100.00
17054;BME280;8643;48.824;11.422;2022-09-09T02:55:37;96664.19;;;10.80;100.00
17054;BME280;8643;48.824;11.422;2022-09-09T02:58:13;96658.47;;;10.86;100.00
17054;BME280;8643;48.824;11.422;2022-09-09T03:00:53;96652.53;;;10.96;100.00
17054;BME280;8643;48.824;11.422;2022-09-09T03:03:22;96657.78;;;11.01;100.00
17054;BME280;8643;48.824;11.422;2022-09-09T03:05:52;96658.59;;;11.01;100.00
17054;BME280;8643;48.824;11.422;2022-09-09T03:08:20;96657.53;;;10.81;100.00
17054;BME280;8643;48.824;11.422;2022-09-09T03:10:49;96659.50;;;10.81;100.00
17054;BME280;8643;48.824;11.422;2022-09-09T03:13:18;96660.06;;;10.74;100.00
17054;BME280;8643;48.824;11.422;2022-09-09T03:15:48;96668.28;;;10.74;100.00
17054;BME280;8643;48.824;11.422;2022-09-09T03:18:21;96663.03;;;10.69;100.00
17054;BME280;8643;48.824;11.422;2022-09-09T03:20:53;96670.06;;;10.58;100.00
17054;BME280;8643;48.824;11.422;2022-09-09T03:23:22;96672.19;;;10.52;100.00
17054;BME280;8643;48.824;11.422;2022-09-09T03:25:51;96671.06;;;10.53;100.00
17054;BME280;8643;48.824;11.422;2022-09-09T03:28:30;96677.34;;;10.54;100.00
17054;BME280;8643;48.824;11.422;2022-09-09T03:31:01;96677.78;;;10.56;100.00
17054;BME280;8643;48.824;11.422;2022-09-09T03:33:36;96672.47;;;10.59;100.00
17054;BME280;8643;48.824;11.422;2022-09-09T03:36:08;96672.94;;;10.74;100.00
17054;BME280;8643;48.824;11.422;2022-09-09T03:38:37;96675.34;;;10.75;100.00
17054;BME280;8643;48.824;11.422;2022-09-09T03:41:07;96675.34;;;10.75;100.00
17054;BME280;8643;48.824;11.422;2022-09-09T03:43:37;96674.31;;;10.80;100.00
17054;BME280;8643;48.824;11.422;2022-09-09T03:46:05;96673.19;;;10.81;100.00
17054;BME280;8643;48.824;11.422;2022-09-09T03:48:33;96670.34;;;10.77;100.00
17054;BME280;8643;48.824;11.422;2022-09-09T03:51:05;96670.78;;;10.79;100.00
17054;BME280;8643;48.824;11.422;2022-09-09T03:53:34;96677.97;;;10.72;100.00
17054;BME280;8643;48.824;11.422;2022-09-09T03:56:05;96674.66;;;10.66;100.00
17054;BME280;8643;48.824;11.422;2022-09-09T03:58:34;96674.66;;;10.66;100.00
17054;BME280;8643;48.824;11.422;2022-09-09T04:01:10;96679.91;;;10.71;100.00
17054;BME280;8643;48.824;11.422;2022-09-09T04:03:41;96681.41;;;10.81;100.00
17054;BME280;8643;48.824;11.422;2022-09-09T04:06:12;96679.38;;;10.90;100.00
17054;BME280;8643;48.824;11.422;2022-09-09T04:08:45;96682.13;;;10.90;100.00
17054;BME280;8643;48.824;11.422;2022-09-09T04:11:16;96676.06;;;10.97;100.00
17054;BME280;8643;48.824;11.422;2022-09-09T04:13:46;96672.66;;;11.00;100.00
17054;BME280;8643;48.824;11.422;2022-09-09T04:16:15;96662.72;;;10.95;100.00
17054;BME280;8643;48.824;11.422;2022-09-09T04:18:43;96664.28;;;10.96;100.00
17054;BME280;8643;48.824;11.422;2022-09-09T04:21:15;96670.03;;;11.04;100.00
17054;BME280;8643;48.824;11.422;2022-09-09T04:23:45;96670.47;;;11.06;100.00
17054;BME280;8643;48.824;11.422;2022-09-09T04:26:13;96669.47;;;11.10;100.00
17054;BME280;8643;48.824;11.422;2022-09-09T04:28:44;96669.81;;;11.09;100.00
17054;BME280;8643;48.824;11.422;2022-09-09T04:31:19;96674.94;;;11.10;100.00
17054;BME280;8643;48.824;11.422;2022-09-09T04:33:53;96663.88;;;11.07;100.00
17054;BME280;8643;48.824;11.422;2022-09-09T04:36:23;96667.84;;;11.09;100.00
17054;BME280;8643;48.824;11.422;2022-09-09T04:38:56;96660.44;;;11.10;100.00
17054;BME280;8643;48.824;11.422;2022-09-09T04:41:25;96661.25;;;11.10;100.00
17054;BME280;8643;48.824;11.422;2022-09-09T04:43:54;96658.59;;;11.14;100.00
17054;BME280;8643;48.824;11.422;2022-09-09T04:46:23;96666.94;;;11.17;100.00
17054;BME280;8643;48.824;11.422;2022-09-09T04:48:52;96662.03;;;11.23;100.00
17054;BME280;8643;48.824;11.422;2022-09-09T04:51:27;96659.88;;;11.29;100.00
17054;BME280;8643;48.824;11.422;2022-09-09T04:53:55;96661.47;;;11.30;100.00
17054;BME280;8643;48.824;11.422;2022-09-09T04:56:24;96664.56;;;11.28;100.00
17054;BME280;8643;48.824;11.422;2022-09-09T04:58:57;96664.22;;;11.30;100.00
17054;BME280;8643;48.824;11.422;2022-09-09T05:01:46;96674.16;;;11.34;100.00
17054;BME280;8643;48.824;11.422;2022-09-09T05:04:14;96671.06;;;11.36;100.00
17054;BME280;8643;48.824;11.422;2022-09-09T05:06:44;96674.59;;;11.36;100.00
17054;BME280;8643;48.824;11.422;2022-09-09T05:09:13;96673.81;;;11.36;100.00
17054;BME280;8643;48.824;11.422;2022-09-09T05:11:43;96672.88;;;11.44;100.00
17054;BME280;8643;48.824;11.422;2022-09-09T05:14:26;96676.97;;;11.50;100.00
17054;BME280;8643;48.824;11.422;2022-09-09T05:16:54;96668.06;;;11.53;100.00
17054;BME280;8643;48.824;11.422;2022-09-09T05:19:23;96680.50;;;11.63;100.00
17054;BME280;8643;48.824;11.422;2022-09-09T05:21:54;96684.84;;;11.77;100.00
17054;BME280;8643;48.824;11.422;2022-09-09T05:24:32;96687.81;;;11.84;100.00
17054;BME280;8643;48.824;11.422;2022-09-09T05:27:02;96688.13;;;12.07;100.00
17054;BME280;8643;48.824;11.422;2022-09-09T05:29:32;96694.81;;;12.22;100.00
17054;BME280;8643;48.824;11.422;2022-09-09T05:32:04;96694.22;;;12.28;100.00
17054;BME280;8643;48.824;11.422;2022-09-09T05:34:34;96693.16;;;12.33;100.00
17054;BME280;8643;48.824;11.422;2022-09-09T05:37:06;96696.34;;;12.35;100.00
17054;BME280;8643;48.824;11.422;2022-09-09T05:39:36;96688.34;;;12.42;100.00
17054;BME280;8643;48.824;11.422;2022-09-09T05:42:05;96695.97;;;12.49;100.00
17054;BME280;8643;48.824;11.422;2022-09-09T05:44:34;96704.50;;;12.60;100.00
17054;BME280;8643;48.824;11.422;2022-09-09T05:47:02;96695.72;;;12.54;100.00
17054;BME280;8643;48.824;11.422;2022-09-09T05:49:31;96703.75;;;12.47;100.00
17054;BME280;8643;48.824;11.422;2022-09-09T05:52:00;96705.91;;;12.54;100.00
17054;BME280;8643;48.824;11.422;2022-09-09T05:54:30;96709.66;;;12.61;100.00
17054;BME280;8643;48.824;11.422;2022-09-09T05:56:59;96704.19;;;12.77;100.00
17054;BME280;8643;48.824;11.422;2022-09-09T05:59:28;96687.19;;;13.03;100.00
17054;BME280;8643;48.824;11.422;2022-09-09T06:01:57;96683.50;;;13.44;100.00
17054;BME280;8643;48.824;11.422;2022-09-09T06:04:32;96693.50;;;13.68;100.00
17054;BME280;8643;48.824;11.422;2022-09-09T06:07:01;96694.34;;;13.72;100.00
17054;BME280;8643;48.824;11.422;2022-09-09T06:09:31;96694.78;;;14.09;100.00
17054;BME280;8643;48.824;11.422;2022-09-09T06:11:59;96703.31;;;14.04;100.00
17054;BME280;8643;48.824;11.422;2022-09-09T06:14:30;96699.50;;;14.28;100.00
17054;BME280;8643;48.824;11.422;2022-09-09T06:16:59;96694.66;;;14.41;100.00
17054;BME280;8643;48.824;11.422;2022-09-09T06:19:30;96697.72;;;14.56;100.00
17054;BME280;8643;48.824;11.422;2022-09-09T06:21:59;96708.81;;;14.59;100.00
17054;BME280;8643;48.824;11.422;2022-09-09T06:24:31;96718.44;;;14.49;100.00
17054;BME280;8643;48.824;11.422;2022-09-09T06:27:02;96721.78;;;14.20;100.00
17054;BME280;8643;48.824;11.422;2022-09-09T06:29:33;96737.03;;;13.82;100.00
17054;BME280;8643;48.824;11.422;2022-09-09T06:32:02;96755.63;;;13.53;100.00
17054;BME280;8643;48.824;11.422;2022-09-09T06:34:31;96759.75;;;13.31;100.00
17054;BME280;8643;48.824;11.422;2022-09-09T06:37:00;96753.22;;;12.91;100.00
17054;BME280;8643;48.824;11.422;2022-09-09T06:39:36;96759.94;;;12.78;100.00
17054;BME280;8643;48.824;11.422;2022-09-09T06:42:06;96757.06;;;12.74;100.00
17054;BME280;8643;48.824;11.422;2022-09-09T06:45:06;96764.03;;;12.56;100.00
17054;BME280;8643;48.824;11.422;2022-09-09T06:47:43;96755.88;;;12.59;100.00
17054;BME280;8643;48.824;11.422;2022-09-09T06:50:11;96751.41;;;12.67;100.00
17054;BME280;8643;48.824;11.422;2022-09-09T06:52:40;96756.13;;;12.82;100.00
17054;BME280;8643;48.824;11.422;2022-09-09T06:55:10;96756.50;;;12.81;100.00
17054;BME280;8643;48.824;11.422;2022-09-09T06:57:40;96749.75;;;12.78;100.00
17054;BME280;8643;48.824;11.422;2022-09-09T07:00:14;96757.53;;;12.76;100.00
17054;BME280;8643;48.824;11.422;2022-09-09T07:02:44;96756.97;;;12.71;100.00
17054;BME280;8643;48.824;11.422;2022-09-09T07:05:13;96758.59;;;12.72;100.00
17054;BME280;8643;48.824;11.422;2022-09-09T07:07:44;96761.63;;;12.82;100.00
17054;BME280;8643;48.824;11.422;2022-09-09T07:10:17;96757.91;;;12.75;100.00
17054;BME280;8643;48.824;11.422;2022-09-09T07:12:50;96760.19;;;12.73;100.00
17054;BME280;8643;48.824;11.422;2022-09-09T07:15:21;96761.34;;;12.72;100.00
17054;BME280;8643;48.824;11.422;2022-09-09T07:17:50;96755.06;;;12.71;100.00
17054;BME280;8643;48.824;11.422;2022-09-09T07:20:21;96755.06;;;12.71;100.00
17054;BME280;8643;48.824;11.422;2022-09-09T07:22:50;96758.53;;;12.84;100.00
17054;BME280;8643;48.824;11.422;2022-09-09T07:25:24;96761.47;;;12.91;100.00
17054;BME280;8643;48.824;11.422;2022-09-09T07:27:53;96753.41;;;12.98;100.00
17054;BME280;8643;48.824;11.422;2022-09-09T07:30:22;96752.44;;;13.07;100.00
17054;BME280;8643;48.824;11.422;2022-09-09T07:32:55;96755.56;;;13.21;100.00
17054;BME280;8643;48.824;11.422;2022-09-09T07:35:25;96757.22;;;13.38;100.00
17054;BME280;8643;48.824;11.422;2022-09-09T07:37:54;96756.06;;;13.55;100.00
17054;BME280;8643;48.824;11.422;2022-09-09T07:40:25;96757.47;;;13.65;100.00
17054;BME280;8643;48.824;11.422;2022-09-09T07:42:53;96751.25;;;13.84;100.00
17054;BME280;8643;48.824;11.422;2022-09-09T07:45:22;96741.41;;;14.18;100.00
17054;BME280;8643;48.824;11.422;2022-09-09T07:47:50;96751.34;;;14.23;100.00
17054;BME280;8643;48.824;11.422;2022-09-09T07:50:20;96751.47;;;14.30;100.00
17054;BME280;8643;48.824;11.422;2022-09-09T07:52:50;96756.75;;;14.19;100.00
17054;BME280;8643;48.824;11.422;2022-09-09T07:55:18;96755.59;;;14.20;100.00
17054;BME280;8643;48.824;11.422;2022-09-09T07:57:48;96764.53;;;14.33;100.00
17054;BME280;8643;48.824;11.422;2022-09-09T08:00:16;96754.53;;;14.44;100.00
17054;BME280;8643;48.824;11.422;2022-09-09T08:02:50;96750.47;;;14.38;100.00
17054;BME280;8643;48.824;11.422;2022-09-09T08:05:22;96744.25;;;14.41;100.00
17054;BME280;8643;48.824;11.422;2022-09-09T08:07:50;96762.88;;;14.48;100.00
17054;BME280;8643;48.824;11.422;2022-09-09T08:10:19;96779.63;;;14.39;100.00
17054;BME280;8643;48.824;11.422;2022-09-09T08:12:50;96785.19;;;14.23;100.00
17054;BME280;8643;48.824;11.422;2022-09-09T08:15:39;96785.19;;;14.43;100.00
17054;BME280;8643;48.824;11.422;2022-09-09T08:18:09;96792.72;;;14.62;100.00
17054;BME280;8643;48.824;11.422;2022-09-09T08:20:38;96790.50;;;14.52;100.00
17054;BME280;8643;48.824;11.422;2022-09-09T08:23:06;96783.41;;;14.51;100.00
17054;BME280;8643;48.824;11.422;2022-09-09T08:25:36;96791.97;;;14.65;100.00
17054;BME280;8643;48.824;11.422;2022-09-09T08:28:06;96797.22;;;14.90;100.00
17054;BME280;8643;48.824;11.422;2022-09-09T08:30:34;96811.44;;;15.11;100.00
17054;BME280;8643;48.824;11.422;2022-09-09T08:33:03;96811.81;;;15.33;100.00
17054;BME280;8643;48.824;11.422;2022-09-09T08:35:32;96805.47;;;15.52;100.00
17054;BME280;8643;48.824;11.422;2022-09-09T08:38:01;96812.63;;;16.29;100.00
17054;BME280;8643;48.824;11.422;2022-09-09T08:40:44;96803.94;;;17.18;100.00
17054;BME280;8643;48.824;11.422;2022-09-09T08:43:20;96807.72;;;17.82;100.00
17054;BME280;8643;48.824;11.422;2022-09-09T08:46:00;96804.31;;;17.58;100.00
17054;BME280;8643;48.824;11.422;2022-09-09T08:48:50;96799.13;;;17.94;100.00
17054;BME280;8643;48.824;11.422;2022-09-09T08:51:26;96787.66;;;17.95;100.00
17054;BME280;8643;48.824;11.422;2022-09-09T08:54:00;96787.19;;;17.86;100.00
17054;BME280;8643;48.824;11.422;2022-09-09T08:56:32;96794.13;;;17.25;100.00
17054;BME280;8643;48.824;11.422;2022-09-09T08:59:07;96799.56;;;16.83;100.00
17054;BME280;8643;48.824;11.422;2022-09-09T09:02:00;96784.28;;;16.06;100.00
17054;BME280;8643;48.824;11.422;2022-09-09T09:04:55;96776.41;;;15.58;100.00
17054;BME280;8643;48.824;11.422;2022-09-09T09:07:51;96783.19;;;15.64;100.00
17054;BME280;8643;48.824;11.422;2022-09-09T09:10:39;96790.78;;;15.48;100.00
17054;BME280;8643;48.824;11.422;2022-09-09T09:13:22;96790.22;;;15.58;100.00
17054;BME280;8643;48.824;11.422;2022-09-09T09:16:07;96787.88;;;15.83;100.00
17054;BME280;8643;48.824;11.422;2022-09-09T09:18:40;96791.78;;;16.05;100.00
17054;BME280;8643;48.824;11.422;2022-09-09T09:21:15;96792.66;;;16.13;100.00
17054;BME280;8643;48.824;11.422;2022-09-09T09:23:55;96794.06;;;16.26;100.00
17054;BME280;8643;48.824;11.422;2022-09-09T09:26:30;96794.66;;;16.73;100.00
17054;BME280;8643;48.824;11.422;2022-09-09T09:29:09;96786.16;;;18.09;100.00
17054;BME280;8643;48.824;11.422;2022-09-09T09:31:45;96782.06;;;18.44;100.00
17054;BME280;8643;48.824;11.422;2022-09-09T09:34:15;96784.81;;;19.32;100.00
17054;BME280;8643;48.824;11.422;2022-09-09T09:36:53;96779.34;;;19.86;100.00
17054;BME280;8643;48.824;11.422;2022-09-09T09:39:27;96793.91;;;21.61;100.00
17054;BME280;8643;48.824;11.422;2022-09-09T09:42:17;96792.38;;;22.05;100.00
17054;BME280;8643;48.824;11.422;2022-09-09T09:44:51;96785.38;;;21.16;100.00
17054;BME280;8643;48.824;11.422;2022-09-09T09:47:23;96782.81;;;22.03;99.91
17054;BME280;8643;48.824;11.422;2022-09-09T09:50:03;96783.88;;;20.97;100.00
17054;BME280;8643;48.824;11.422;2022-09-09T09:52:36;96772.81;;;20.79;100.00
17054;BME280;8643;48.824;11.422;2022-09-09T09:55:14;96777.34;;;21.92;100.00
17054;BME280;8643;48.824;11.422;2022-09-09T09:57:45;96783.25;;;23.46;100.00
17054;BME280;8643;48.824;11.422;2022-09-09T10:00:17;96775.44;;;23.34;90.48
17054;BME280;8643;48.824;11.422;2022-09-09T10:02:56;96777.59;;;23.22;90.19
17054;BME280;8643;48.824;11.422;2022-09-09T10:05:30;96774.38;;;22.89;97.54
17054;BME280;8643;48.824;11.422;2022-09-09T10:08:12;96775.66;;;22.05;89.92
17054;BME280;8643;48.824;11.422;2022-09-09T10:10:58;96781.75;;;21.89;92.13
17054;BME280;8643;48.824;11.422;2022-09-09T10:13:40;96777.44;;;22.30;93.53
17054;BME280;8643;48.824;11.422;2022-09-09T10:16:29;96776.72;;;22.19;93.35
17054;BME280;8643;48.824;11.422;2022-09-09T10:19:08;96789.50;;;20.82;86.92
17054;BME280;8643;48.824;11.422;2022-09-09T10:22:17;96776.84;;;22.49;83.42
17054;BME280;8643;48.824;11.422;2022-09-09T10:25:23;96774.94;;;21.94;86.54
17054;BME280;8643;48.824;11.422;2022-09-09T10:28:21;96784.88;;;21.99;85.96
17054;BME280;8643;48.824;11.422;2022-09-09T10:31:04;96777.13;;;22.17;85.34
17054;BME280;8643;48.824;11.422;2022-09-09T10:33:44;96774.38;;;24.06;84.12
17054;BME280;8643;48.824;11.422;2022-09-09T10:36:22;96780.91;;;25.06;83.71
17054;BME280;8643;48.824;11.422;2022-09-09T10:38:58;96780.78;;;23.52;85.67
17054;BME280;8643;48.824;11.422;2022-09-09T10:41:44;96782.19;;;21.21;82.88
17054;BME280;8643;48.824;11.422;2022-09-09T10:44:44;96775.34;;;20.12;89.11
17054;BME280;8643;48.824;11.422;2022-09-09T10:47:43;96784.47;;;20.16;97.24
17054;BME280;8643;48.824;11.422;2022-09-09T10:50:40;96771.41;;;20.09;92.58
17054;BME280;8643;48.824;11.422;2022-09-09T10:53:52;96752.31;;;20.19;91.03
17054;BME280;8643;48.824;11.422;2022-09-09T10:56:23;96755.13;;;19.90;91.93
17054;BME280;8643;48.824;11.422;2022-09-09T10:58:56;96763.75;;;20.57;93.12
17054;BME280;8643;48.824;11.422;2022-09-09T11:01:34;96757.28;;;21.63;89.07
17054;BME280;8643;48.824;11.422;2022-09-09T11:04:15;96756.88;;;23.20;83.76
17054;BME280;8643;48.824;11.422;2022-09-09T11:06:52;96759.56;;;21.75;85.88
17054;BME280;8643;48.824;11.422;2022-09-09T11:09:28;96758.19;;;22.77;89.13
17054;BME280;8643;48.824;11.422;2022-09-09T11:12:01;96765.28;;;23.47;81.20
17054;BME280;8643;48.824;11.422;2022-09-09T11:14:37;96763.72;;;23.97;75.90
17054;BME280;8643;48.824;11.422;2022-09-09T11:17:13;96754.44;;;25.64;71.30
17054;BME280;8643;48.824;11.422;2022-09-09T11:19:45;96762.97;;;24.16;72.96
17054;BME280;8643;48.824;11.422;2022-09-09T11:22:25;96752.31;;;24.31;77.50
17054;BME280;8643;48.824;11.422;2022-09-09T11:25:00;96750.34;;;22.65;82.76
17054;BME280;8643;48.824;11.422;2022-09-09T11:27:43;96756.97;;;22.02;89.23
17054;BME280;8643;48.824;11.422;2022-09-09T11:30:20;96754.06;;;22.89;89.74
17054;BME280;8643;48.824;11.422;2022-09-09T11:33:37;96752.53;;;25.04;76.41
17054;BME280;8643;48.824;11.422;2022-09-09T11:36:35;96752.53;;;25.04;70.49
17054;BME280;8643;48.824;11.422;2022-09-09T11:42:18;96754.16;;;25.58;72.69
17054;BME280;8643;48.824;11.422;2022-09-09T11:44:47;96754.31;;;23.33;80.15
17054;BME280;8643;48.824;11.422;2022-09-09T11:47:25;96748.41;;;22.96;79.43
17054;BME280;8643;48.824;11.422;2022-09-09T11:50:27;96754.47;;;22.11;83.08
17054;BME280;8643;48.824;11.422;2022-09-09T11:53:20;96747.31;;;22.86;81.30
17054;BME280;8643;48.824;11.422;2022-09-09T11:56:06;96751.97;;;22.97;75.68
17054;BME280;8643;48.824;11.422;2022-09-09T11:58:42;96759.75;;;22.02;79.36
17054;BME280;8643;48.824;11.422;2022-09-09T12:01:28;96753.03;;;22.41;83.30
17054;BME280;8643;48.824;11.422;2022-09-09T12:04:34;96750.69;;;24.34;71.54
17054;BME280;8643;48.824;11.422;2022-09-09T12:07:31;96744.75;;;24.08;71.95
17054;BME280;8643;48.824;11.422;2022-09-09T12:10:20;96751.00;;;24.16;77.56
17054;BME280;8643;48.824;11.422;2022-09-09T12:12:49;96745.31;;;23.72;79.85
17054;BME280;8643;48.824;11.422;2022-09-09T12:15:28;96739.66;;;22.60;80.12
17054;BME280;8643;48.824;11.422;2022-09-09T12:17:58;96745.44;;;21.48;88.14
17054;BME280;8643;48.824;11.422;2022-09-09T12:20:34;96748.41;;;21.12;89.60
17054;BME280;8643;48.824;11.422;2022-09-09T12:23:23;96733.97;;;21.91;89.91
17054;BME280;8643;48.824;11.422;2022-09-09T12:26:24;96737.47;;;22.75;84.87
17054;BME280;8643;48.824;11.422;2022-09-09T12:29:08;96743.38;;;24.40;78.36
17054;BME280;8643;48.824;11.422;2022-09-09T12:31:49;96733.97;;;24.07;78.70
17054;BME280;8643;48.824;11.422;2022-09-09T12:34:35;96723.22;;;22.69;82.60
17054;BME280;8643;48.824;11.422;2022-09-09T12:37:15;96717.34;;;23.49;78.97
17054;BME280;8643;48.824;11.422;2022-09-09T12:39:53;96711.97;;;23.61;75.12
17054;BME280;8643;48.824;11.422;2022-09-09T12:42:24;96711.59;;;22.74;81.91
17054;BME280;8643;48.824;11.422;2022-09-09T12:44:55;96712.06;;;22.35;83.27
17054;BME280;8643;48.824;11.422;2022-09-09T12:47:37;96708.50;;;21.85;84.77
17054;BME280;8643;48.824;11.422;2022-09-09T12:50:17;96707.38;;;22.21;85.33
17054;BME280;8643;48.824;11.422;2022-09-09T12:52:49;96708.09;;;22.28;81.11
17054;BME280;8643;48.824;11.422;2022-09-09T12:55:20;96695.25;;;22.73;83.22
17054;BME280;8643;48.824;11.422;2022-09-09T12:57:52;96703.03;;;23.70;83.37
17054;BME280;8643;48.824;11.422;2022-09-09T13:00:23;96702.53;;;24.43;81.53
17054;BME280;8643;48.824;11.422;2022-09-09T13:02:56;96707.78;;;25.01;74.10
17054;BME280;8643;48.824;11.422;2022-09-09T13:05:28;96710.81;;;24.90;76.08
17054;BME280;8643;48.824;11.422;2022-09-09T13:08:01;96696.22;;;24.19;74.58
17054;BME280;8643;48.824;11.422;2022-09-09T13:10:35;96696.44;;;24.28;77.17
17054;BME280;8643;48.824;11.422;2022-09-09T13:13:23;96693.03;;;23.73;75.90
17054;BME280;8643;48.824;11.422;2022-09-09T13:15:56;96690.69;;;23.44;78.78
17054;BME280;8643;48.824;11.422;2022-09-09T13:18:29;96691.50;;;24.36;73.17
17054;BME280;8643;48.824;11.422;2022-09-09T13:21:01;96688.22;;;23.97;74.80
17054;BME280;8643;48.824;11.422;2022-09-09T13:23:33;96682.03;;;24.29;73.19
17054;BME280;8643;48.824;11.422;2022-09-09T13:26:05;96677.44;;;24.39;78.11
17054;BME280;8643;48.824;11.422;2022-09-09T13:28:35;96675.81;;;23.51;78.15
17054;BME280;8643;48.824;11.422;2022-09-09T13:31:18;96668.19;;;23.51;74.96
17054;BME280;8643;48.824;11.422;2022-09-09T13:33:48;96669.94;;;24.56;74.15
17054;BME280;8643;48.824;11.422;2022-09-09T13:36:29;96668.84;;;24.70;71.54
17054;BME280;8643;48.824;11.422;2022-09-09T13:39:00;96659.00;;;24.22;69.92
17054;BME280;8643;48.824;11.422;2022-09-09T13:41:34;96647.81;;;23.78;76.59
17054;BME280;8643;48.824;11.422;2022-09-09T13:44:03;96643.41;;;22.75;80.20